Main page
METAR-TAF:

METAR-TAF

Airports :

Pointe Noire Airport

Pointe-Noire, Congo

latitude: 04-49S, longitude: 011-54E, elevation: 17 m

Current weather observation

The report was made 31 minutes ago, at 17:30 UTC
Wind 7 kt from the South
Temperature 24°C
Humidity 89%
Pressure 1011 hPa
Visibility: 8000 m
Few clouds at a height of 1000 ft

METAR: FCPP 151730Z 19007KT 8000 FEW010 24/22 Q1011 NOSIG

Time: 19:01 (18:01 UTC)

Forecast

The report was made 1 hour and 1 minutes ago, at 17:00 UTC
Forecast valid from 15 at 18 UTC to 16 at 18 UTC
Wind 5 kt from variable directions
Visibility: 7000 m
Few clouds at a height of 1000 ft
Probability 30%
from 15 at 22 UTC to 15 at 24 UTC
Visibility: 4000 m
mist
Probability 30%
from 16 at 06 UTC to 16 at 08 UTC
Visibility: 4000 m
mist
Probability 40%
from 16 at 12 UTC to 16 at 18 UTC
Wind 10 kt from the South/Southwest

TAF: FCPP 151700Z 1518/1618 VRB05KT 7000 FEW010 PROB30 1522/1524 4000 BR PROB30 1606/1608 4000 BR PROB40 1612/1618 20010KT

Weather observations and forecasts of more than 4000 airports (METAR and TAF reports).

The available stations are represented by yellow and red dots on the map.

Hover mouse over dot to see the name of the station.

Then click to see weather observations and forecasts.

To change the map : click on the green buttons with a black cross to zoom in, on the green button with a dash to zoom out, or on the green arrows for adjacent maps.


METAR-TAF: